createdAt,value
2018-06-14T00:02:25.046Z,9.50
2018-06-14T00:04:53.506Z,9.43
2018-06-14T00:07:22.060Z,9.87
2018-06-14T00:09:50.614Z,9.37
2018-06-14T00:12:19.117Z,8.20
2018-06-14T00:14:47.654Z,10.97
2018-06-14T00:17:16.110Z,10.93
2018-06-14T00:19:44.630Z,12.50
2018-06-14T00:22:13.593Z,11.43
2018-06-14T00:24:42.445Z,12.53
2018-06-14T00:27:10.890Z,10.07
2018-06-14T00:29:39.515Z,9.60
2018-06-14T00:32:08.079Z,9.50
2018-06-14T00:34:36.554Z,9.47
2018-06-14T00:37:05.038Z,13.20
2018-06-14T00:39:35.680Z,9.70
2018-06-14T00:42:04.330Z,9.47
2018-06-14T00:44:32.822Z,12.07
2018-06-14T00:47:01.583Z,9.90
2018-06-14T00:49:29.773Z,13.50
2018-06-14T00:51:58.284Z,11.00
2018-06-14T00:54:26.859Z,12.13
2018-06-14T00:57:06.447Z,15.20
2018-06-14T00:59:34.942Z,13.77
2018-06-14T01:02:03.414Z,10.70
2018-06-14T01:04:31.889Z,15.23
2018-06-14T01:07:00.372Z,13.97
2018-06-14T01:09:32.790Z,16.63
2018-06-14T01:12:01.275Z,14.43
2018-06-14T01:14:29.690Z,22.40
2018-06-14T01:16:58.136Z,13.20
2018-06-14T01:19:26.544Z,17.20
2018-06-14T01:21:54.998Z,10.77
2018-06-14T01:24:23.409Z,12.93
2018-06-14T01:26:54.299Z,12.97
2018-06-14T01:29:24.026Z,16.03
2018-06-14T01:31:52.474Z,12.50
2018-06-14T01:34:20.904Z,10.87
2018-06-14T01:36:50.252Z,10.33
2018-06-14T01:39:18.704Z,12.20
2018-06-14T01:41:47.723Z,11.00
2018-06-14T01:44:16.153Z,11.30
2018-06-14T01:46:44.284Z,10.50
2018-06-14T01:49:12.721Z,11.80
2018-06-14T01:51:41.177Z,14.27
2018-06-14T01:54:09.606Z,9.10
2018-06-14T01:56:38.081Z,11.47
2018-06-14T01:59:06.709Z,18.70
2018-06-14T02:01:35.150Z,14.43
2018-06-14T02:04:03.600Z,12.03
2018-06-14T02:06:32.040Z,13.87
2018-06-14T02:09:00.734Z,15.00
2018-06-14T02:11:29.162Z,12.47
2018-06-14T02:13:57.578Z,14.30
2018-06-14T02:16:26.026Z,15.70
2018-06-14T02:18:54.505Z,13.90
2018-06-14T02:21:22.963Z,13.73
2018-06-14T02:23:51.433Z,13.70
2018-06-14T02:26:20.113Z,20.30
2018-06-14T02:28:50.723Z,11.40
2018-06-14T02:31:19.183Z,13.53
2018-06-14T02:33:47.659Z,14.30
2018-06-14T02:36:16.164Z,13.20
2018-06-14T02:38:44.577Z,11.93
2018-06-14T02:41:13.030Z,11.90
2018-06-14T02:43:41.530Z,11.47
2018-06-14T02:46:09.985Z,10.60
2018-06-14T02:48:38.408Z,13.20
2018-06-14T02:51:06.966Z,13.80
2018-06-14T02:53:35.394Z,12.27
2018-06-14T02:56:03.878Z,15.17
2018-06-14T02:58:32.339Z,11.50
2018-06-14T03:01:00.816Z,14.37
2018-06-14T03:03:29.279Z,13.03
2018-06-14T03:05:57.761Z,11.50
2018-06-14T03:08:26.222Z,13.37
2018-06-14T03:10:54.654Z,10.73
2018-06-14T03:13:23.098Z,9.53
2018-06-14T03:15:51.541Z,16.80
2018-06-14T03:18:19.976Z,13.50
2018-06-14T03:20:48.432Z,11.23
2018-06-14T03:23:17.083Z,12.33
2018-06-14T03:25:45.797Z,11.93
2018-06-14T03:28:14.239Z,10.90
2018-06-14T03:30:42.791Z,12.27
2018-06-14T03:33:11.250Z,10.73
2018-06-14T03:35:39.725Z,10.30
2018-06-14T03:38:08.204Z,14.53
2018-06-14T03:40:36.678Z,11.20
2018-06-14T03:43:05.165Z,12.90
2018-06-14T03:45:33.627Z,10.97
2018-06-14T03:48:02.130Z,12.83
2018-06-14T03:50:30.622Z,14.50
2018-06-14T03:52:59.073Z,12.20
2018-06-14T03:55:27.537Z,13.07
2018-06-14T03:57:55.677Z,16.67
2018-06-14T04:00:24.151Z,14.70
2018-06-14T04:02:52.853Z,13.37
2018-06-14T04:05:21.378Z,11.63
2018-06-14T04:07:49.817Z,12.37
2018-06-14T04:10:18.329Z,13.77
2018-06-14T04:12:46.725Z,15.37
2018-06-14T04:15:15.181Z,13.27
2018-06-14T04:17:47.837Z,11.43
2018-06-14T04:20:16.754Z,10.87
2018-06-14T04:22:45.176Z,14.27
2018-06-14T04:25:13.633Z,12.13
2018-06-14T04:27:41.782Z,12.10
2018-06-14T04:30:10.254Z,14.03
2018-06-14T04:32:38.678Z,17.90
2018-06-14T04:35:07.121Z,14.37
2018-06-14T04:37:35.559Z,13.50
2018-06-14T04:40:04.030Z,14.67
2018-06-14T04:42:32.498Z,14.90
2018-06-14T04:45:01.010Z,13.63
2018-06-14T04:47:29.769Z,12.20
2018-06-14T04:49:58.234Z,14.70
2018-06-14T04:52:26.773Z,12.40
2018-06-14T04:54:55.462Z,12.37
2018-06-14T04:57:23.976Z,13.17
2018-06-14T04:59:52.506Z,20.80
2018-06-14T05:02:21.007Z,16.30
2018-06-14T05:04:49.152Z,12.67
2018-06-14T05:07:17.601Z,13.00
2018-06-14T05:09:46.046Z,15.73
2018-06-14T05:12:14.478Z,12.50
2018-06-14T05:14:42.665Z,15.33
2018-06-14T05:17:11.098Z,15.77
2018-06-14T05:19:40.797Z,12.70
2018-06-14T05:22:09.470Z,14.10
2018-06-14T05:24:38.537Z,15.27
2018-06-14T05:27:07.058Z,13.00
2018-06-14T05:29:35.757Z,14.27
2018-06-14T05:32:04.324Z,14.50
2018-06-14T05:34:32.956Z,12.93
2018-06-14T05:37:01.509Z,14.30
2018-06-14T05:39:29.970Z,12.77
2018-06-14T05:41:58.397Z,15.67
2018-06-14T05:44:26.878Z,12.83
2018-06-14T05:46:55.326Z,15.50
2018-06-14T05:49:23.781Z,14.47
2018-06-14T05:51:52.282Z,13.87
2018-06-14T05:54:20.983Z,15.70
2018-06-14T05:56:49.731Z,14.03
2018-06-14T05:59:18.214Z,13.90
2018-06-14T06:01:46.657Z,13.60
2018-06-14T06:04:15.146Z,12.07
2018-06-14T06:06:43.602Z,12.83
2018-06-14T06:09:12.549Z,16.30
2018-06-14T06:11:41.024Z,16.80
2018-06-14T06:14:09.206Z,21.63
2018-06-14T06:16:37.672Z,15.00
2018-06-14T06:19:06.139Z,12.90
2018-06-14T06:21:34.611Z,14.27
2018-06-14T06:24:03.070Z,13.23
2018-06-14T06:26:31.581Z,16.43
2018-06-14T06:29:00.230Z,12.43
2018-06-14T06:31:28.713Z,9.93
2018-06-14T06:33:57.329Z,16.50
2018-06-14T06:36:26.287Z,17.30
2018-06-14T06:38:54.916Z,12.60
2018-06-14T06:41:23.379Z,13.60
2018-06-14T06:43:51.881Z,12.13
2018-06-14T06:46:20.336Z,10.17
2018-06-14T06:48:48.815Z,10.23
2018-06-14T06:51:17.277Z,10.87
2018-06-14T06:53:45.750Z,9.10
2018-06-14T06:56:14.215Z,9.33
2018-06-14T06:58:42.618Z,7.47
2018-06-14T07:01:11.110Z,8.73
2018-06-14T07:03:39.614Z,7.73
2018-06-14T07:06:08.168Z,7.97
2018-06-14T07:08:36.584Z,6.47
2018-06-14T07:11:05.095Z,6.17
2018-06-14T07:13:33.580Z,5.13
2018-06-14T07:16:02.311Z,4.17
2018-06-14T07:18:30.862Z,4.87
2018-06-14T07:20:59.017Z,6.07
2018-06-14T07:23:27.502Z,5.23
2018-06-14T07:25:56.031Z,4.53
2018-06-14T07:28:24.531Z,5.60
2018-06-14T07:30:53.021Z,6.10
2018-06-14T07:33:21.501Z,4.83
2018-06-14T07:35:49.991Z,4.03
2018-06-14T07:38:18.528Z,3.97
2018-06-14T07:40:47.448Z,4.27
2018-06-14T07:43:16.005Z,6.47
2018-06-14T07:45:44.417Z,5.60
2018-06-14T07:48:12.890Z,7.10
2018-06-14T07:50:41.370Z,5.60
2018-06-14T07:53:09.866Z,5.73
2018-06-14T07:55:38.297Z,5.70
2018-06-14T07:58:06.826Z,7.13
2018-06-14T08:00:35.262Z,6.33
2018-06-14T08:03:04.297Z,5.63
2018-06-14T08:05:32.747Z,4.40
2018-06-14T08:08:01.201Z,8.53
2018-06-14T08:10:29.666Z,10.27
2018-06-14T08:12:58.117Z,5.10
2018-06-14T08:15:26.560Z,8.47
2018-06-14T08:17:55.031Z,4.63
2018-06-14T08:20:24.705Z,5.00
2018-06-14T08:22:53.169Z,5.20
2018-06-14T08:25:21.630Z,4.60
2018-06-14T08:27:50.097Z,5.73
2018-06-14T08:30:18.569Z,4.57
2018-06-14T08:32:47.016Z,5.63
2018-06-14T08:35:15.741Z,5.97
2018-06-14T08:37:44.550Z,6.00
2018-06-14T08:40:12.985Z,5.97
2018-06-14T08:42:41.682Z,7.87
2018-06-14T08:45:10.151Z,6.03
2018-06-14T08:47:38.609Z,9.77
2018-06-14T08:50:07.316Z,5.87
2018-06-14T08:52:35.811Z,8.70
2018-06-14T08:55:04.558Z,6.33
2018-06-14T08:57:33.088Z,7.53
2018-06-14T09:00:01.595Z,6.57
2018-06-14T09:02:30.102Z,8.00
2018-06-14T09:04:58.583Z,6.17
2018-06-14T09:07:27.149Z,4.97
2018-06-14T09:09:55.729Z,6.63
2018-06-14T09:12:24.413Z,9.97
2018-06-14T09:14:52.912Z,9.13
2018-06-14T09:17:21.397Z,8.23
2018-06-14T09:19:49.532Z,5.90
2018-06-14T09:22:18.449Z,6.43
2018-06-14T09:24:47.119Z,10.50
2018-06-14T09:27:15.582Z,6.73
2018-06-14T09:29:44.730Z,8.07
2018-06-14T09:32:14.262Z,5.90
2018-06-14T09:34:43.211Z,7.77
2018-06-14T09:37:12.057Z,5.20
2018-06-14T09:39:40.574Z,7.40
2018-06-14T09:42:09.076Z,4.20
2018-06-14T09:44:37.521Z,9.30
2018-06-14T09:47:05.992Z,5.17
2018-06-14T09:49:34.473Z,6.00
2018-06-14T09:52:02.922Z,6.30
2018-06-14T09:54:31.603Z,6.60
2018-06-14T09:57:00.075Z,6.47
2018-06-14T09:59:28.201Z,5.80
2018-06-14T10:01:56.944Z,4.77
2018-06-14T10:04:25.089Z,7.20
2018-06-14T10:06:54.294Z,6.57
2018-06-14T10:09:23.581Z,8.07
2018-06-14T10:11:52.512Z,5.23
2018-06-14T10:14:21.179Z,3.83
2018-06-14T10:16:49.629Z,5.03
2018-06-14T10:19:18.082Z,7.00
2018-06-14T10:21:46.787Z,5.03
2018-06-14T10:24:15.221Z,5.03
2018-06-14T10:26:43.839Z,4.43
2018-06-14T10:29:12.299Z,8.10
2018-06-14T10:31:40.758Z,4.37
2018-06-14T10:34:09.274Z,5.97
2018-06-14T10:36:37.770Z,7.63
2018-06-14T10:39:07.506Z,4.37
2018-06-14T10:41:35.957Z,10.67
2018-06-14T10:44:05.050Z,5.70
2018-06-14T10:46:33.745Z,7.40
2018-06-14T10:49:02.660Z,5.00
2018-06-14T10:51:31.097Z,6.70
2018-06-14T10:53:59.229Z,6.00
2018-06-14T10:56:27.730Z,4.50
2018-06-14T10:58:56.171Z,5.60
2018-06-14T11:01:24.665Z,4.17
2018-06-14T11:03:53.197Z,4.30
2018-06-14T11:06:21.673Z,7.20
2018-06-14T11:08:50.107Z,7.20
2018-06-14T11:11:18.587Z,4.17
2018-06-14T11:13:47.248Z,4.50
2018-06-14T11:16:15.713Z,4.03
2018-06-14T11:18:44.145Z,5.40
2018-06-14T11:21:12.607Z,7.13
2018-06-14T11:23:41.050Z,5.53
2018-06-14T11:26:09.269Z,5.43
2018-06-14T11:28:37.944Z,5.40
2018-06-14T11:31:06.426Z,7.73
2018-06-14T11:33:34.846Z,8.43
2018-06-14T11:36:03.301Z,6.73
2018-06-14T11:38:31.714Z,6.60
2018-06-14T11:41:00.289Z,5.80
2018-06-14T11:43:28.725Z,4.80
2018-06-14T11:45:57.460Z,7.73
2018-06-14T11:48:25.948Z,9.60
2018-06-14T11:50:54.513Z,5.63
2018-06-14T11:53:23.109Z,6.00
2018-06-14T11:55:51.573Z,10.53
2018-06-14T11:58:19.977Z,5.43
2018-06-14T12:00:48.428Z,5.20
2018-06-14T12:03:16.874Z,7.83
2018-06-14T12:05:44.997Z,7.90
2018-06-14T12:08:13.725Z,4.83
2018-06-14T12:10:42.193Z,4.50
2018-06-14T12:13:10.619Z,3.80
2018-06-14T12:15:39.065Z,3.70
2018-06-14T12:18:07.505Z,3.97
2018-06-14T12:20:36.349Z,4.40
2018-06-14T12:23:04.499Z,5.03
2018-06-14T12:25:32.974Z,5.70
2018-06-14T12:28:01.450Z,7.43
2018-06-14T12:30:29.922Z,4.37
2018-06-14T12:32:58.440Z,4.30
2018-06-14T12:35:26.604Z,4.50
2018-06-14T12:37:55.054Z,6.90
2018-06-14T12:40:23.531Z,8.67
2018-06-14T12:42:52.080Z,5.60
2018-06-14T12:45:20.937Z,9.67
2018-06-14T12:47:49.417Z,7.13
2018-06-14T12:50:18.309Z,5.03
2018-06-14T12:52:47.109Z,5.70
2018-06-14T12:55:15.802Z,6.70
2018-06-14T12:57:44.336Z,8.20
2018-06-14T13:00:12.817Z,5.53
2018-06-14T13:02:41.273Z,5.27
2018-06-14T13:05:09.768Z,5.10
2018-06-14T13:07:38.242Z,5.30
2018-06-14T13:10:07.361Z,8.10
2018-06-14T13:12:35.810Z,5.27
2018-06-14T13:15:04.620Z,6.63
2018-06-14T13:17:33.114Z,5.33
2018-06-14T13:20:01.649Z,7.57
2018-06-14T13:22:30.088Z,5.97
2018-06-14T13:24:59.066Z,7.80
2018-06-14T13:27:27.709Z,6.40
2018-06-14T13:29:56.170Z,6.10
2018-06-14T13:32:24.630Z,5.57
2018-06-14T13:34:53.134Z,5.13
2018-06-14T13:37:21.611Z,6.20
2018-06-14T13:39:50.090Z,5.57
2018-06-14T13:42:18.566Z,5.20
2018-06-14T13:44:47.053Z,3.97
2018-06-14T13:47:15.771Z,6.30
2018-06-14T13:49:44.276Z,5.67
2018-06-14T13:52:12.725Z,5.30
2018-06-14T13:54:41.222Z,6.83
2018-06-14T13:57:09.701Z,7.77
2018-06-14T13:59:38.261Z,9.73
2018-06-14T14:02:06.750Z,4.87
2018-06-14T14:04:35.255Z,6.10
2018-06-14T14:07:04.644Z,4.63
2018-06-14T14:09:33.249Z,5.30
2018-06-14T14:12:01.473Z,3.77
2018-06-14T14:14:30.135Z,4.20
2018-06-14T14:16:58.861Z,7.23
2018-06-14T14:19:27.374Z,4.90
2018-06-14T14:21:55.837Z,6.97
2018-06-14T14:24:24.316Z,8.07
2018-06-14T14:26:53.002Z,5.77
2018-06-14T14:29:21.465Z,7.00
2018-06-14T14:31:49.917Z,7.70
2018-06-14T14:34:18.629Z,3.83
2018-06-14T14:36:47.109Z,5.47
2018-06-14T14:39:15.641Z,6.37
2018-06-14T14:41:43.773Z,5.60
2018-06-14T14:44:12.270Z,7.27
2018-06-14T14:46:40.765Z,6.10
2018-06-14T14:49:09.314Z,5.33
2018-06-14T14:51:37.768Z,4.60
2018-06-14T14:54:06.236Z,5.63
2018-06-14T14:56:34.911Z,4.30
2018-06-14T14:59:03.422Z,6.17
2018-06-14T15:01:32.151Z,5.53
2018-06-14T15:04:00.673Z,5.30
2018-06-14T15:06:28.802Z,5.00
2018-06-14T15:08:57.301Z,5.77
2018-06-14T15:11:25.829Z,4.83
2018-06-14T15:13:54.314Z,4.73
2018-06-14T15:16:23.138Z,7.57
2018-06-14T15:18:52.473Z,5.07
2018-06-14T15:21:20.950Z,5.37
2018-06-14T15:23:49.454Z,6.40
2018-06-14T15:26:17.597Z,4.53
2018-06-14T15:28:46.095Z,4.30
2018-06-14T15:31:14.265Z,7.40
2018-06-14T15:33:42.742Z,6.03
2018-06-14T15:36:11.211Z,5.93
2018-06-14T15:38:39.674Z,5.13
2018-06-14T15:41:08.121Z,5.93
2018-06-14T15:43:36.635Z,5.57
2018-06-14T15:46:05.569Z,5.43
2018-06-14T15:48:34.082Z,6.43
2018-06-14T15:51:02.509Z,4.67
2018-06-14T15:53:30.979Z,7.50
2018-06-14T15:56:13.772Z,6.87
2018-06-14T15:58:42.324Z,5.73
2018-06-14T16:01:10.747Z,6.73
2018-06-14T16:03:39.222Z,4.80
2018-06-14T16:06:07.675Z,7.13
2018-06-14T16:08:35.833Z,4.17
2018-06-14T16:11:04.312Z,7.00
2018-06-14T16:13:32.797Z,4.70
2018-06-14T16:16:01.551Z,5.67
2018-06-14T16:18:30.382Z,10.23
2018-06-14T16:20:58.855Z,5.70
2018-06-14T16:23:27.344Z,4.70
2018-06-14T16:25:56.040Z,6.30
2018-06-14T16:28:24.268Z,11.60
2018-06-14T16:30:52.713Z,6.23
2018-06-14T16:33:20.927Z,7.07
2018-06-14T16:35:49.402Z,6.17
2018-06-14T16:38:17.890Z,5.13
2018-06-14T16:40:46.359Z,6.20
2018-06-14T16:43:14.843Z,5.13
2018-06-14T16:45:43.613Z,6.70
2018-06-14T16:48:12.070Z,5.57
2018-06-14T16:50:40.516Z,6.90
2018-06-14T16:53:09.009Z,5.70
2018-06-14T16:55:37.469Z,5.77
2018-06-14T16:58:06.147Z,6.00
2018-06-14T17:00:34.832Z,4.23
2018-06-14T17:03:03.419Z,8.37
2018-06-14T17:05:31.529Z,11.83
2018-06-14T17:08:00.257Z,5.47
2018-06-14T17:10:28.823Z,4.87
2018-06-14T17:12:57.330Z,6.40
2018-06-14T17:15:25.854Z,6.83
2018-06-14T17:17:54.277Z,4.57
2018-06-14T17:20:22.425Z,5.13
2018-06-14T17:22:50.936Z,3.90
2018-06-14T17:25:19.408Z,4.90
2018-06-14T17:27:54.606Z,4.70
2018-06-14T17:30:23.129Z,6.27
2018-06-14T17:32:51.623Z,7.40
2018-06-14T17:35:19.840Z,5.53
2018-06-14T17:37:48.405Z,8.93
2018-06-14T17:40:16.973Z,6.67
2018-06-14T17:42:45.491Z,6.47
2018-06-14T17:45:13.946Z,6.80
2018-06-14T17:47:42.445Z,7.87
2018-06-14T17:50:10.988Z,5.63
2018-06-14T17:52:39.128Z,5.63
2018-06-14T17:55:07.657Z,9.27
2018-06-14T17:57:35.800Z,6.77
2018-06-14T18:00:04.528Z,7.17
2018-06-14T18:02:33.034Z,5.67
2018-06-14T18:05:01.715Z,8.70
2018-06-14T18:07:30.082Z,7.53
2018-06-14T18:09:58.564Z,13.63
2018-06-14T18:12:27.049Z,9.47
2018-06-14T18:14:55.482Z,8.13
2018-06-14T18:17:23.991Z,8.70
2018-06-14T18:19:52.152Z,8.13
2018-06-14T18:22:20.860Z,7.03
2018-06-14T18:24:49.303Z,8.00
2018-06-14T18:27:17.851Z,7.50
2018-06-14T18:29:46.354Z,6.90
2018-06-14T18:32:14.469Z,7.03
2018-06-14T18:34:42.937Z,8.70
2018-06-14T18:37:11.424Z,7.57
2018-06-14T18:39:39.989Z,7.00
2018-06-14T18:42:08.510Z,7.80
2018-06-14T18:44:37.038Z,6.27
2018-06-14T18:47:05.561Z,7.73
2018-06-14T18:49:34.039Z,7.37
2018-06-14T18:52:02.754Z,8.60
2018-06-14T18:54:31.457Z,8.67
2018-06-14T18:56:59.954Z,5.77
2018-06-14T18:59:28.424Z,9.30
2018-06-14T19:01:56.926Z,5.63
2018-06-14T19:04:25.421Z,11.30
2018-06-14T19:06:53.935Z,6.23
2018-06-14T19:09:22.429Z,7.33
2018-06-14T19:11:50.631Z,6.30
2018-06-14T19:14:19.097Z,7.43
2018-06-14T19:16:47.553Z,5.80
2018-06-14T19:19:16.250Z,5.30
2018-06-14T19:21:44.422Z,8.27
2018-06-14T19:24:12.596Z,8.43
2018-06-14T19:26:41.051Z,7.73
2018-06-14T19:29:09.595Z,10.70
2018-06-14T19:31:38.184Z,7.63
2018-06-14T19:34:06.741Z,9.40
2018-06-14T19:36:34.889Z,9.00
2018-06-14T19:39:03.566Z,6.53
2018-06-14T19:41:32.034Z,9.50
2018-06-14T19:44:00.738Z,8.83
2018-06-14T19:46:29.255Z,6.70
2018-06-14T19:48:57.754Z,10.63
2018-06-14T19:51:26.237Z,7.30
2018-06-14T19:53:54.973Z,9.30
2018-06-14T19:56:23.429Z,8.60
2018-06-14T19:58:52.363Z,9.60
2018-06-14T20:01:20.862Z,10.50
2018-06-14T20:03:49.371Z,7.63
2018-06-14T20:06:17.898Z,12.03
2018-06-14T20:08:46.402Z,7.87
2018-06-14T20:11:14.934Z,9.07
2018-06-14T20:13:44.283Z,8.47
2018-06-14T20:16:12.941Z,9.40
2018-06-14T20:18:41.606Z,8.10
2018-06-14T20:21:10.210Z,9.20
2018-06-14T20:23:38.591Z,9.87
2018-06-14T20:26:07.155Z,8.10
2018-06-14T20:28:35.664Z,8.37
2018-06-14T20:31:04.639Z,8.30
2018-06-14T20:33:34.865Z,10.73
2018-06-14T20:36:03.354Z,10.17
2018-06-14T20:38:32.087Z,10.93
2018-06-14T20:41:00.266Z,12.37
2018-06-14T20:43:28.876Z,9.67
2018-06-14T20:45:57.386Z,10.63
2018-06-14T20:48:25.908Z,9.10
2018-06-14T20:50:54.508Z,11.60
2018-06-14T20:53:23.727Z,8.93
2018-06-14T20:55:52.325Z,12.90
2018-06-14T20:58:21.702Z,11.03
2018-06-14T21:00:50.659Z,10.57
2018-06-14T21:03:19.180Z,12.73
2018-06-14T21:05:47.981Z,11.23
2018-06-14T21:08:16.497Z,8.93
2018-06-14T21:10:45.002Z,8.83
2018-06-14T21:13:13.558Z,11.20
2018-06-14T21:15:42.107Z,10.43
2018-06-14T21:18:10.669Z,10.20
2018-06-14T21:20:39.166Z,10.57
2018-06-14T21:23:07.686Z,7.30
2018-06-14T21:25:37.082Z,11.33
2018-06-14T21:28:06.066Z,11.53
2018-06-14T21:30:34.581Z,14.80
2018-06-14T21:33:03.145Z,10.00
2018-06-14T21:35:31.705Z,11.80
2018-06-14T21:38:00.465Z,12.13
2018-06-14T21:40:28.666Z,13.63
2018-06-14T21:42:57.431Z,11.43
2018-06-14T21:45:26.145Z,11.53
2018-06-14T21:47:54.675Z,11.13
2018-06-14T21:50:23.182Z,15.30
2018-06-14T21:52:51.685Z,13.30
2018-06-14T21:55:20.138Z,10.80
2018-06-14T21:57:48.307Z,10.90
2018-06-14T22:00:16.791Z,13.57
2018-06-14T22:02:50.725Z,11.90
2018-06-14T22:05:18.988Z,11.93
2018-06-14T22:07:47.264Z,10.47
2018-06-14T22:10:15.785Z,13.57
2018-06-14T22:12:44.481Z,11.17
2018-06-14T22:15:13.032Z,12.50
2018-06-14T22:17:41.800Z,13.93
2018-06-14T22:20:10.298Z,12.73
2018-06-14T22:22:38.513Z,10.70
2018-06-14T22:25:07.040Z,12.57
2018-06-14T22:27:35.612Z,10.77
2018-06-14T22:30:04.398Z,11.17
2018-06-14T22:32:32.976Z,11.70
2018-06-14T22:35:20.794Z,12.10
2018-06-14T22:37:49.718Z,14.20
2018-06-14T22:40:18.208Z,10.53
2018-06-14T22:42:46.705Z,11.50
2018-06-14T22:45:15.419Z,12.67
2018-06-14T22:47:44.073Z,13.97
2018-06-14T22:50:12.604Z,11.13
2018-06-14T22:52:52.505Z,13.27
2018-06-14T22:55:22.205Z,14.50
2018-06-14T22:57:50.814Z,11.13
2018-06-14T23:00:35.078Z,16.90
2018-06-14T23:03:03.606Z,16.60
2018-06-14T23:05:32.088Z,14.77
2018-06-14T23:08:00.560Z,14.90
2018-06-14T23:10:43.988Z,13.90
2018-06-14T23:13:14.697Z,14.03
2018-06-14T23:15:43.190Z,13.67
2018-06-14T23:18:11.710Z,13.90
2018-06-14T23:20:40.231Z,13.90
2018-06-14T23:23:08.837Z,14.70
2018-06-14T23:25:37.841Z,12.47
2018-06-14T23:28:06.354Z,15.47
2018-06-14T23:30:34.851Z,15.00
2018-06-14T23:33:03.323Z,11.30
2018-06-14T23:35:31.801Z,11.03
2018-06-14T23:38:00.294Z,11.93
2018-06-14T23:40:28.757Z,14.33
2018-06-14T23:42:57.216Z,13.20
2018-06-14T23:45:25.690Z,15.43
2018-06-14T23:47:54.140Z,12.73
2018-06-14T23:50:22.306Z,14.97
2018-06-14T23:52:50.998Z,13.53
2018-06-14T23:55:19.685Z,13.90
2018-06-14T23:57:47.847Z,14.03
